Terminal Aerodrome Forecast
Issued by NWS Wakefield, VA

Home | Current Version | Previous Version | Text Only | Print | Product List | Glossary On
Versions: 1 2 3 4 5 6 7 8 9 10 11 12 13 14 15
000
FTUS41 KAKQ 200500
TAFORF
TAF
KORF 200539Z 2006/2106 01005KT P6SM BKN200
     FM201400 03005KT P6SM BKN050 OVC080
     FM201800 04005KT P6SM VCSH BKN030 OVC080=

USA.gov is the U.S. government's official web portal to all federal, state and local government web resources and services.